sensor_id;sensor_type;location;lat;lon;timestamp;P1;durP1;ratioP1;P2;durP2;ratioP2
20076;SDS011;12348;42.710;23.378;2022-09-12T00:01:11;7.77;;;5.47;;
20076;SDS011;12348;42.710;23.378;2022-09-12T00:03:39;6.63;;;5.13;;
20076;SDS011;12348;42.710;23.378;2022-09-12T00:06:09;7.13;;;5.80;;
20076;SDS011;12348;42.710;23.378;2022-09-12T00:08:37;9.73;;;6.27;;
20076;SDS011;12348;42.710;23.378;2022-09-12T00:11:05;7.13;;;5.70;;
20076;SDS011;12348;42.710;23.378;2022-09-12T00:13:33;8.60;;;6.50;;
20076;SDS011;12348;42.710;23.378;2022-09-12T00:16:00;6.97;;;5.63;;
20076;SDS011;12348;42.710;23.378;2022-09-12T00:18:27;8.67;;;6.93;;
20076;SDS011;12348;42.710;23.378;2022-09-12T00:20:54;7.93;;;6.27;;
20076;SDS011;12348;42.710;23.378;2022-09-12T00:23:22;16.13;;;6.20;;
20076;SDS011;12348;42.710;23.378;2022-09-12T00:25:49;8.27;;;6.30;;
20076;SDS011;12348;42.710;23.378;2022-09-12T00:28:16;8.27;;;6.77;;
20076;SDS011;12348;42.710;23.378;2022-09-12T00:30:44;7.57;;;6.10;;
20076;SDS011;12348;42.710;23.378;2022-09-12T00:33:13;9.07;;;6.23;;
20076;SDS011;12348;42.710;23.378;2022-09-12T00:35:42;8.53;;;6.70;;
20076;SDS011;12348;42.710;23.378;2022-09-12T00:38:10;8.77;;;6.70;;
20076;SDS011;12348;42.710;23.378;2022-09-12T00:40:39;10.33;;;7.17;;
20076;SDS011;12348;42.710;23.378;2022-09-12T00:43:09;7.40;;;6.40;;
20076;SDS011;12348;42.710;23.378;2022-09-12T00:45:38;7.37;;;5.77;;
20076;SDS011;12348;42.710;23.378;2022-09-12T00:48:07;11.10;;;6.70;;
20076;SDS011;12348;42.710;23.378;2022-09-12T00:50:45;8.00;;;5.90;;
20076;SDS011;12348;42.710;23.378;2022-09-12T00:53:11;7.77;;;6.40;;
20076;SDS011;12348;42.710;23.378;2022-09-12T00:55:40;8.80;;;5.63;;
20076;SDS011;12348;42.710;23.378;2022-09-12T00:58:13;8.47;;;6.07;;
20076;SDS011;12348;42.710;23.378;2022-09-12T01:00:45;11.03;;;5.83;;
20076;SDS011;12348;42.710;23.378;2022-09-12T01:03:13;7.57;;;5.70;;
20076;SDS011;12348;42.710;23.378;2022-09-12T01:05:43;6.77;;;5.23;;
20076;SDS011;12348;42.710;23.378;2022-09-12T01:08:20;9.67;;;4.90;;
20076;SDS011;12348;42.710;23.378;2022-09-12T01:10:49;6.30;;;5.37;;
20076;SDS011;12348;42.710;23.378;2022-09-12T01:13:17;7.10;;;5.30;;
20076;SDS011;12348;42.710;23.378;2022-09-12T01:15:44;6.23;;;4.93;;
20076;SDS011;12348;42.710;23.378;2022-09-12T01:18:13;8.10;;;5.50;;
20076;SDS011;12348;42.710;23.378;2022-09-12T01:21:01;6.83;;;5.50;;
20076;SDS011;12348;42.710;23.378;2022-09-12T01:32:33;6.10;;;4.87;;
20076;SDS011;12348;42.710;23.378;2022-09-12T01:35:10;6.80;;;5.27;;
20076;SDS011;12348;42.710;23.378;2022-09-12T01:37:49;7.10;;;5.50;;
20076;SDS011;12348;42.710;23.378;2022-09-12T01:40:25;7.63;;;6.00;;
20076;SDS011;12348;42.710;23.378;2022-09-12T01:43:00;5.87;;;5.00;;
20076;SDS011;12348;42.710;23.378;2022-09-12T01:45:37;6.23;;;5.37;;
20076;SDS011;12348;42.710;23.378;2022-09-12T01:48:09;5.40;;;4.67;;
20076;SDS011;12348;42.710;23.378;2022-09-12T01:50:43;9.03;;;6.03;;
20076;SDS011;12348;42.710;23.378;2022-09-12T01:53:14;7.50;;;5.43;;
20076;SDS011;12348;42.710;23.378;2022-09-12T01:55:46;7.30;;;4.43;;
20076;SDS011;12348;42.710;23.378;2022-09-12T01:58:17;6.47;;;5.03;;
20076;SDS011;12348;42.710;23.378;2022-09-12T02:00:49;6.30;;;4.90;;
20076;SDS011;12348;42.710;23.378;2022-09-12T02:03:23;6.07;;;5.20;;
20076;SDS011;12348;42.710;23.378;2022-09-12T02:05:55;5.60;;;4.63;;
20076;SDS011;12348;42.710;23.378;2022-09-12T02:08:26;4.93;;;4.43;;
20076;SDS011;12348;42.710;23.378;2022-09-12T02:10:58;6.00;;;5.13;;
20076;SDS011;12348;42.710;23.378;2022-09-12T02:13:30;6.73;;;4.57;;
20076;SDS011;12348;42.710;23.378;2022-09-12T02:16:02;5.10;;;4.60;;
20076;SDS011;12348;42.710;23.378;2022-09-12T02:18:35;10.30;;;5.17;;
20076;SDS011;12348;42.710;23.378;2022-09-12T02:21:04;7.67;;;5.00;;
20076;SDS011;12348;42.710;23.378;2022-09-12T02:23:32;5.80;;;4.80;;
20076;SDS011;12348;42.710;23.378;2022-09-12T02:26:04;7.33;;;4.40;;
20076;SDS011;12348;42.710;23.378;2022-09-12T02:28:38;7.73;;;5.50;;
20076;SDS011;12348;42.710;23.378;2022-09-12T02:31:09;8.70;;;5.40;;
20076;SDS011;12348;42.710;23.378;2022-09-12T02:33:45;7.57;;;4.80;;
20076;SDS011;12348;42.710;23.378;2022-09-12T02:36:21;9.47;;;5.10;;
20076;SDS011;12348;42.710;23.378;2022-09-12T02:38:58;7.47;;;5.53;;
20076;SDS011;12348;42.710;23.378;2022-09-12T02:41:25;6.57;;;5.60;;
20076;SDS011;12348;42.710;23.378;2022-09-12T02:43:52;7.77;;;5.40;;
20076;SDS011;12348;42.710;23.378;2022-09-12T02:46:21;6.60;;;5.57;;
20076;SDS011;12348;42.710;23.378;2022-09-12T02:48:51;9.80;;;5.67;;
20076;SDS011;12348;42.710;23.378;2022-09-12T02:51:19;5.90;;;5.07;;
20076;SDS011;12348;42.710;23.378;2022-09-12T02:53:47;6.67;;;5.47;;
20076;SDS011;12348;42.710;23.378;2022-09-12T02:56:16;6.53;;;5.53;;
20076;SDS011;12348;42.710;23.378;2022-09-12T02:58:48;7.73;;;6.30;;
20076;SDS011;12348;42.710;23.378;2022-09-12T03:01:18;6.60;;;5.40;;
20076;SDS011;12348;42.710;23.378;2022-09-12T03:04:00;7.70;;;5.60;;
20076;SDS011;12348;42.710;23.378;2022-09-12T03:06:40;7.73;;;5.47;;
20076;SDS011;12348;42.710;23.378;2022-09-12T03:09:16;8.20;;;6.47;;
20076;SDS011;12348;42.710;23.378;2022-09-12T03:11:56;8.90;;;6.07;;
20076;SDS011;12348;42.710;23.378;2022-09-12T03:14:37;6.57;;;5.77;;
20076;SDS011;12348;42.710;23.378;2022-09-12T03:17:18;12.93;;;7.60;;
20076;SDS011;12348;42.710;23.378;2022-09-12T03:19:55;9.67;;;6.67;;
20076;SDS011;12348;42.710;23.378;2022-09-12T03:22:27;8.07;;;6.20;;
20076;SDS011;12348;42.710;23.378;2022-09-12T03:25:01;8.03;;;6.30;;
20076;SDS011;12348;42.710;23.378;2022-09-12T03:27:35;9.07;;;6.10;;
20076;SDS011;12348;42.710;23.378;2022-09-12T03:30:05;8.93;;;6.30;;
20076;SDS011;12348;42.710;23.378;2022-09-12T03:32:42;9.20;;;6.20;;
20076;SDS011;12348;42.710;23.378;2022-09-12T03:35:11;11.07;;;8.30;;
20076;SDS011;12348;42.710;23.378;2022-09-12T03:37:39;11.00;;;8.37;;
20076;SDS011;12348;42.710;23.378;2022-09-12T03:40:07;10.47;;;7.97;;
20076;SDS011;12348;42.710;23.378;2022-09-12T03:42:36;9.63;;;7.33;;
20076;SDS011;12348;42.710;23.378;2022-09-12T03:45:03;8.43;;;6.80;;
20076;SDS011;12348;42.710;23.378;2022-09-12T03:47:30;8.87;;;7.33;;
20076;SDS011;12348;42.710;23.378;2022-09-12T03:49:57;8.80;;;6.83;;
20076;SDS011;12348;42.710;23.378;2022-09-12T03:52:25;10.37;;;7.40;;
20076;SDS011;12348;42.710;23.378;2022-09-12T03:54:52;9.40;;;6.93;;
20076;SDS011;12348;42.710;23.378;2022-09-12T03:57:19;11.77;;;7.17;;
20076;SDS011;12348;42.710;23.378;2022-09-12T03:59:47;12.53;;;7.40;;
20076;SDS011;12348;42.710;23.378;2022-09-12T04:02:16;8.63;;;7.07;;
20076;SDS011;12348;42.710;23.378;2022-09-12T04:04:43;8.40;;;6.73;;
20076;SDS011;12348;42.710;23.378;2022-09-12T04:07:10;12.23;;;6.83;;
20076;SDS011;12348;42.710;23.378;2022-09-12T04:09:38;11.17;;;7.77;;
20076;SDS011;12348;42.710;23.378;2022-09-12T04:12:05;9.57;;;7.37;;
20076;SDS011;12348;42.710;23.378;2022-09-12T04:14:32;10.50;;;8.00;;
20076;SDS011;12348;42.710;23.378;2022-09-12T04:16:59;12.13;;;8.60;;
20076;SDS011;12348;42.710;23.378;2022-09-12T04:19:26;10.53;;;7.83;;
20076;SDS011;12348;42.710;23.378;2022-09-12T04:21:53;9.90;;;7.57;;
20076;SDS011;12348;42.710;23.378;2022-09-12T04:24:20;12.90;;;8.03;;
20076;SDS011;12348;42.710;23.378;2022-09-12T04:26:48;11.83;;;8.13;;
20076;SDS011;12348;42.710;23.378;2022-09-12T04:29:15;10.10;;;7.47;;
20076;SDS011;12348;42.710;23.378;2022-09-12T04:31:42;7.93;;;6.27;;
20076;SDS011;12348;42.710;23.378;2022-09-12T04:34:09;7.70;;;5.97;;
20076;SDS011;12348;42.710;23.378;2022-09-12T04:36:36;9.83;;;6.60;;
20076;SDS011;12348;42.710;23.378;2022-09-12T04:39:03;6.77;;;5.17;;
20076;SDS011;12348;42.710;23.378;2022-09-12T04:41:32;5.70;;;5.07;;
20076;SDS011;12348;42.710;23.378;2022-09-12T04:44:03;6.90;;;5.50;;
20076;SDS011;12348;42.710;23.378;2022-09-12T04:46:32;5.33;;;4.80;;
20076;SDS011;12348;42.710;23.378;2022-09-12T04:49:01;7.23;;;4.60;;
20076;SDS011;12348;42.710;23.378;2022-09-12T04:51:28;7.83;;;4.07;;
20076;SDS011;12348;42.710;23.378;2022-09-12T04:53:58;4.20;;;3.80;;
20076;SDS011;12348;42.710;23.378;2022-09-12T04:56:27;4.83;;;3.77;;
20076;SDS011;12348;42.710;23.378;2022-09-12T04:58:55;4.43;;;3.63;;
20076;SDS011;12348;42.710;23.378;2022-09-12T05:01:25;3.67;;;3.30;;
20076;SDS011;12348;42.710;23.378;2022-09-12T05:03:54;4.30;;;3.40;;
20076;SDS011;12348;42.710;23.378;2022-09-12T05:06:23;6.07;;;3.80;;
20076;SDS011;12348;42.710;23.378;2022-09-12T05:08:51;4.50;;;3.63;;
20076;SDS011;12348;42.710;23.378;2022-09-12T05:11:20;4.87;;;4.10;;
20076;SDS011;12348;42.710;23.378;2022-09-12T05:13:48;5.57;;;3.87;;
20076;SDS011;12348;42.710;23.378;2022-09-12T05:16:16;6.63;;;3.93;;
20076;SDS011;12348;42.710;23.378;2022-09-12T05:18:44;6.10;;;4.27;;
20076;SDS011;12348;42.710;23.378;2022-09-12T05:21:13;9.97;;;3.90;;
20076;SDS011;12348;42.710;23.378;2022-09-12T05:23:41;5.13;;;3.23;;
20076;SDS011;12348;42.710;23.378;2022-09-12T05:26:09;7.10;;;4.07;;
20076;SDS011;12348;42.710;23.378;2022-09-12T05:28:39;6.27;;;3.67;;
20076;SDS011;12348;42.710;23.378;2022-09-12T05:31:07;4.73;;;3.27;;
20076;SDS011;12348;42.710;23.378;2022-09-12T05:33:37;6.97;;;4.40;;
20076;SDS011;12348;42.710;23.378;2022-09-12T05:36:10;8.73;;;4.80;;
20076;SDS011;12348;42.710;23.378;2022-09-12T05:38:39;7.53;;;4.73;;
20076;SDS011;12348;42.710;23.378;2022-09-12T05:41:06;6.23;;;4.37;;
20076;SDS011;12348;42.710;23.378;2022-09-12T05:43:35;5.67;;;4.90;;
20076;SDS011;12348;42.710;23.378;2022-09-12T05:46:03;7.73;;;4.07;;
20076;SDS011;12348;42.710;23.378;2022-09-12T05:48:33;10.70;;;6.37;;
20076;SDS011;12348;42.710;23.378;2022-09-12T05:51:01;4.93;;;4.17;;
20076;SDS011;12348;42.710;23.378;2022-09-12T05:53:34;4.83;;;4.00;;
20076;SDS011;12348;42.710;23.378;2022-09-12T05:56:05;3.83;;;3.23;;
20076;SDS011;12348;42.710;23.378;2022-09-12T05:58:33;4.87;;;3.90;;
20076;SDS011;12348;42.710;23.378;2022-09-12T06:01:01;5.10;;;3.13;;
20076;SDS011;12348;42.710;23.378;2022-09-12T06:03:31;7.63;;;4.30;;
20076;SDS011;12348;42.710;23.378;2022-09-12T06:06:02;6.30;;;4.23;;
20076;SDS011;12348;42.710;23.378;2022-09-12T06:08:30;9.17;;;6.83;;
20076;SDS011;12348;42.710;23.378;2022-09-12T06:10:59;5.70;;;4.80;;
20076;SDS011;12348;42.710;23.378;2022-09-12T06:13:27;8.80;;;6.03;;
20076;SDS011;12348;42.710;23.378;2022-09-12T06:15:53;5.03;;;3.77;;
20076;SDS011;12348;42.710;23.378;2022-09-12T06:18:20;4.47;;;3.23;;
20076;SDS011;12348;42.710;23.378;2022-09-12T06:20:47;5.93;;;3.80;;
20076;SDS011;12348;42.710;23.378;2022-09-12T06:23:14;5.77;;;4.07;;
20076;SDS011;12348;42.710;23.378;2022-09-12T06:25:47;3.63;;;3.27;;
20076;SDS011;12348;42.710;23.378;2022-09-12T06:28:16;5.57;;;4.10;;
20076;SDS011;12348;42.710;23.378;2022-09-12T06:30:44;4.37;;;3.13;;
20076;SDS011;12348;42.710;23.378;2022-09-12T06:33:11;3.43;;;2.77;;
20076;SDS011;12348;42.710;23.378;2022-09-12T06:35:37;5.60;;;3.93;;
20076;SDS011;12348;42.710;23.378;2022-09-12T06:38:04;3.30;;;3.00;;
20076;SDS011;12348;42.710;23.378;2022-09-12T06:40:33;5.53;;;3.40;;
20076;SDS011;12348;42.710;23.378;2022-09-12T06:43:01;4.93;;;2.97;;
20076;SDS011;12348;42.710;23.378;2022-09-12T06:45:29;3.60;;;3.30;;
20076;SDS011;12348;42.710;23.378;2022-09-12T06:47:56;3.30;;;3.00;;
20076;SDS011;12348;42.710;23.378;2022-09-12T06:50:23;4.03;;;3.40;;
20076;SDS011;12348;42.710;23.378;2022-09-12T06:52:50;8.03;;;3.00;;
20076;SDS011;12348;42.710;23.378;2022-09-12T06:55:16;4.83;;;3.27;;
20076;SDS011;12348;42.710;23.378;2022-09-12T06:57:43;3.73;;;2.90;;
20076;SDS011;12348;42.710;23.378;2022-09-12T07:00:11;4.37;;;3.33;;
20076;SDS011;12348;42.710;23.378;2022-09-12T07:02:40;4.13;;;3.60;;
20076;SDS011;12348;42.710;23.378;2022-09-12T07:05:07;4.00;;;3.50;;
20076;SDS011;12348;42.710;23.378;2022-09-12T07:07:35;4.20;;;2.93;;
20076;SDS011;12348;42.710;23.378;2022-09-12T07:10:02;3.40;;;2.80;;
20076;SDS011;12348;42.710;23.378;2022-09-12T07:12:30;3.93;;;3.20;;
20076;SDS011;12348;42.710;23.378;2022-09-12T07:14:57;4.67;;;3.40;;
20076;SDS011;12348;42.710;23.378;2022-09-12T07:17:25;3.67;;;3.33;;
20076;SDS011;12348;42.710;23.378;2022-09-12T07:19:53;5.40;;;3.10;;
20076;SDS011;12348;42.710;23.378;2022-09-12T07:22:20;2.93;;;2.70;;
20076;SDS011;12348;42.710;23.378;2022-09-12T07:24:47;3.03;;;2.73;;
20076;SDS011;12348;42.710;23.378;2022-09-12T07:27:14;4.47;;;2.53;;
20076;SDS011;12348;42.710;23.378;2022-09-12T07:29:41;3.90;;;3.00;;
20076;SDS011;12348;42.710;23.378;2022-09-12T07:32:08;4.60;;;2.90;;
20076;SDS011;12348;42.710;23.378;2022-09-12T07:34:36;4.50;;;2.50;;
20076;SDS011;12348;42.710;23.378;2022-09-12T07:37:06;7.83;;;2.83;;
20076;SDS011;12348;42.710;23.378;2022-09-12T07:39:34;5.93;;;5.00;;
20076;SDS011;12348;42.710;23.378;2022-09-12T07:42:01;4.90;;;3.10;;
20076;SDS011;12348;42.710;23.378;2022-09-12T07:44:28;4.47;;;3.53;;
20076;SDS011;12348;42.710;23.378;2022-09-12T07:46:55;4.93;;;3.50;;
20076;SDS011;12348;42.710;23.378;2022-09-12T07:49:22;6.23;;;5.10;;
20076;SDS011;12348;42.710;23.378;2022-09-12T07:51:48;7.03;;;5.37;;
20076;SDS011;12348;42.710;23.378;2022-09-12T07:54:17;3.33;;;3.03;;
20076;SDS011;12348;42.710;23.378;2022-09-12T07:56:44;5.67;;;3.87;;
20076;SDS011;12348;42.710;23.378;2022-09-12T07:59:11;5.43;;;3.53;;
20076;SDS011;12348;42.710;23.378;2022-09-12T08:01:38;4.27;;;3.83;;
20076;SDS011;12348;42.710;23.378;2022-09-12T08:04:05;5.30;;;3.90;;
20076;SDS011;12348;42.710;23.378;2022-09-12T08:06:33;4.83;;;3.47;;
20076;SDS011;12348;42.710;23.378;2022-09-12T08:09:01;5.60;;;3.50;;
20076;SDS011;12348;42.710;23.378;2022-09-12T08:11:30;3.67;;;3.20;;
20076;SDS011;12348;42.710;23.378;2022-09-12T08:13:56;3.10;;;2.60;;
20076;SDS011;12348;42.710;23.378;2022-09-12T08:16:26;4.93;;;3.23;;
20076;SDS011;12348;42.710;23.378;2022-09-12T08:18:55;4.83;;;4.33;;
20076;SDS011;12348;42.710;23.378;2022-09-12T08:21:22;5.47;;;3.43;;
20076;SDS011;12348;42.710;23.378;2022-09-12T08:23:50;7.23;;;4.73;;
20076;SDS011;12348;42.710;23.378;2022-09-12T08:26:18;5.47;;;4.30;;
20076;SDS011;12348;42.710;23.378;2022-09-12T08:28:46;4.70;;;3.83;;
20076;SDS011;12348;42.710;23.378;2022-09-12T08:31:14;15.43;;;9.37;;
20076;SDS011;12348;42.710;23.378;2022-09-12T08:33:42;4.77;;;4.03;;
20076;SDS011;12348;42.710;23.378;2022-09-12T08:36:10;6.47;;;5.07;;
20076;SDS011;12348;42.710;23.378;2022-09-12T08:38:38;4.87;;;3.70;;
20076;SDS011;12348;42.710;23.378;2022-09-12T08:41:08;5.17;;;3.57;;
20076;SDS011;12348;42.710;23.378;2022-09-12T08:43:43;7.23;;;4.60;;
20076;SDS011;12348;42.710;23.378;2022-09-12T08:46:24;5.63;;;4.20;;
20076;SDS011;12348;42.710;23.378;2022-09-12T08:48:57;5.47;;;3.67;;
20076;SDS011;12348;42.710;23.378;2022-09-12T08:51:25;8.20;;;5.53;;
20076;SDS011;12348;42.710;23.378;2022-09-12T08:53:53;7.37;;;5.00;;
20076;SDS011;12348;42.710;23.378;2022-09-12T08:56:22;5.93;;;3.60;;
20076;SDS011;12348;42.710;23.378;2022-09-12T08:58:54;2.70;;;2.50;;
20076;SDS011;12348;42.710;23.378;2022-09-12T09:01:23;6.87;;;3.00;;
20076;SDS011;12348;42.710;23.378;2022-09-12T09:04:03;5.00;;;3.10;;
20076;SDS011;12348;42.710;23.378;2022-09-12T09:06:43;5.63;;;2.60;;
20076;SDS011;12348;42.710;23.378;2022-09-12T09:09:33;5.87;;;4.93;;
20076;SDS011;12348;42.710;23.378;2022-09-12T09:12:09;3.77;;;3.10;;
20076;SDS011;12348;42.710;23.378;2022-09-12T09:14:47;3.30;;;3.00;;
20076;SDS011;12348;42.710;23.378;2022-09-12T09:17:24;6.80;;;3.10;;
20076;SDS011;12348;42.710;23.378;2022-09-12T09:19:57;3.37;;;3.07;;
20076;SDS011;12348;42.710;23.378;2022-09-12T09:22:32;3.37;;;3.00;;
20076;SDS011;12348;42.710;23.378;2022-09-12T09:25:05;3.77;;;3.23;;
20076;SDS011;12348;42.710;23.378;2022-09-12T09:27:38;4.57;;;4.00;;
20076;SDS011;12348;42.710;23.378;2022-09-12T09:30:15;5.53;;;4.37;;
20076;SDS011;12348;42.710;23.378;2022-09-12T09:32:44;3.40;;;3.10;;
20076;SDS011;12348;42.710;23.378;2022-09-12T09:35:18;3.77;;;3.17;;
20076;SDS011;12348;42.710;23.378;2022-09-12T09:38:02;3.57;;;3.27;;
20076;SDS011;12348;42.710;23.378;2022-09-12T09:40:41;3.53;;;3.23;;
20076;SDS011;12348;42.710;23.378;2022-09-12T09:43:18;4.07;;;3.47;;
20076;SDS011;12348;42.710;23.378;2022-09-12T09:45:49;7.47;;;3.40;;
20076;SDS011;12348;42.710;23.378;2022-09-12T09:48:17;3.60;;;2.90;;
20076;SDS011;12348;42.710;23.378;2022-09-12T09:50:46;2.80;;;2.60;;
20076;SDS011;12348;42.710;23.378;2022-09-12T09:53:23;6.53;;;3.60;;
20076;SDS011;12348;42.710;23.378;2022-09-12T09:55:54;3.90;;;3.57;;
20076;SDS011;12348;42.710;23.378;2022-09-12T09:58:29;5.87;;;3.87;;
20076;SDS011;12348;42.710;23.378;2022-09-12T10:01:01;8.60;;;3.67;;
20076;SDS011;12348;42.710;23.378;2022-09-12T10:03:32;5.07;;;3.53;;
20076;SDS011;12348;42.710;23.378;2022-09-12T10:06:05;3.20;;;2.90;;
20076;SDS011;12348;42.710;23.378;2022-09-12T10:08:33;7.90;;;3.20;;
20076;SDS011;12348;42.710;23.378;2022-09-12T10:11:03;3.50;;;3.20;;
20076;SDS011;12348;42.710;23.378;2022-09-12T10:13:37;4.17;;;3.13;;
20076;SDS011;12348;42.710;23.378;2022-09-12T10:16:15;3.40;;;2.63;;
20076;SDS011;12348;42.710;23.378;2022-09-12T10:18:46;2.73;;;2.37;;
20076;SDS011;12348;42.710;23.378;2022-09-12T10:21:26;4.53;;;3.40;;
20076;SDS011;12348;42.710;23.378;2022-09-12T10:26:47;4.33;;;2.60;;
20076;SDS011;12348;42.710;23.378;2022-09-12T10:29:17;4.63;;;3.10;;
20076;SDS011;12348;42.710;23.378;2022-09-12T10:31:51;4.87;;;3.67;;
20076;SDS011;12348;42.710;23.378;2022-09-12T10:34:22;3.10;;;2.90;;
20076;SDS011;12348;42.710;23.378;2022-09-12T10:36:57;4.70;;;3.70;;
20076;SDS011;12348;42.710;23.378;2022-09-12T10:39:26;4.40;;;4.00;;
20076;SDS011;12348;42.710;23.378;2022-09-12T10:41:55;3.63;;;3.20;;
20076;SDS011;12348;42.710;23.378;2022-09-12T10:44:23;3.63;;;3.33;;
20076;SDS011;12348;42.710;23.378;2022-09-12T10:46:53;4.20;;;3.80;;
20076;SDS011;12348;42.710;23.378;2022-09-12T10:49:22;3.20;;;2.90;;
20076;SDS011;12348;42.710;23.378;2022-09-12T10:51:51;5.20;;;4.20;;
20076;SDS011;12348;42.710;23.378;2022-09-12T10:54:20;5.43;;;3.63;;
20076;SDS011;12348;42.710;23.378;2022-09-12T10:56:55;4.20;;;3.80;;
20076;SDS011;12348;42.710;23.378;2022-09-12T11:02:39;8.30;;;5.47;;
20076;SDS011;12348;42.710;23.378;2022-09-12T11:05:16;5.73;;;4.83;;
20076;SDS011;12348;42.710;23.378;2022-09-12T11:07:52;5.00;;;4.50;;
20076;SDS011;12348;42.710;23.378;2022-09-12T11:10:30;4.10;;;3.70;;
20076;SDS011;12348;42.710;23.378;2022-09-12T11:13:08;5.33;;;4.47;;
20076;SDS011;12348;42.710;23.378;2022-09-12T11:15:51;7.90;;;4.13;;
20076;SDS011;12348;42.710;23.378;2022-09-12T11:18:34;4.10;;;3.70;;
20076;SDS011;12348;42.710;23.378;2022-09-12T11:21:18;9.07;;;4.50;;
20076;SDS011;12348;42.710;23.378;2022-09-12T11:24:02;3.77;;;3.43;;
20076;SDS011;12348;42.710;23.378;2022-09-12T11:26:42;6.57;;;4.37;;
20076;SDS011;12348;42.710;23.378;2022-09-12T11:29:18;5.13;;;3.93;;
20076;SDS011;12348;42.710;23.378;2022-09-12T11:32:05;5.80;;;4.00;;
20076;SDS011;12348;42.710;23.378;2022-09-12T11:34:44;5.80;;;2.80;;
20076;SDS011;12348;42.710;23.378;2022-09-12T11:37:24;3.60;;;3.17;;
20076;SDS011;12348;42.710;23.378;2022-09-12T11:40:04;4.37;;;3.53;;
20076;SDS011;12348;42.710;23.378;2022-09-12T11:42:40;3.67;;;3.37;;
20076;SDS011;12348;42.710;23.378;2022-09-12T11:45:12;5.43;;;3.43;;
20076;SDS011;12348;42.710;23.378;2022-09-12T11:47:42;5.50;;;3.67;;
20076;SDS011;12348;42.710;23.378;2022-09-12T11:50:17;4.07;;;3.50;;
20076;SDS011;12348;42.710;23.378;2022-09-12T11:52:50;6.43;;;3.00;;
20076;SDS011;12348;42.710;23.378;2022-09-12T11:55:21;4.13;;;3.47;;
20076;SDS011;12348;42.710;23.378;2022-09-12T11:57:52;4.60;;;3.27;;
20076;SDS011;12348;42.710;23.378;2022-09-12T12:00:21;4.20;;;3.40;;
20076;SDS011;12348;42.710;23.378;2022-09-12T12:02:54;3.70;;;3.40;;
20076;SDS011;12348;42.710;23.378;2022-09-12T12:05:30;3.40;;;3.10;;
20076;SDS011;12348;42.710;23.378;2022-09-12T12:08:03;3.37;;;2.77;;
20076;SDS011;12348;42.710;23.378;2022-09-12T12:10:32;2.93;;;2.73;;
20076;SDS011;12348;42.710;23.378;2022-09-12T12:13:02;2.90;;;2.67;;
20076;SDS011;12348;42.710;23.378;2022-09-12T12:15:33;3.60;;;3.00;;
20076;SDS011;12348;42.710;23.378;2022-09-12T12:18:02;7.70;;;2.90;;
20076;SDS011;12348;42.710;23.378;2022-09-12T12:20:33;4.13;;;3.37;;
20076;SDS011;12348;42.710;23.378;2022-09-12T12:23:01;3.40;;;2.90;;
20076;SDS011;12348;42.710;23.378;2022-09-12T12:25:39;5.00;;;4.07;;
20076;SDS011;12348;42.710;23.378;2022-09-12T12:31:15;2.67;;;2.47;;
20076;SDS011;12348;42.710;23.378;2022-09-12T12:36:54;4.27;;;2.50;;
20076;SDS011;12348;42.710;23.378;2022-09-12T12:45:47;3.80;;;3.40;;
20076;SDS011;12348;42.710;23.378;2022-09-12T12:51:33;11.80;;;4.50;;
20076;SDS011;12348;42.710;23.378;2022-09-12T12:57:21;5.37;;;4.70;;
20076;SDS011;12348;42.710;23.378;2022-09-12T12:59:54;6.90;;;4.03;;
20076;SDS011;12348;42.710;23.378;2022-09-12T13:02:26;7.70;;;5.20;;
20076;SDS011;12348;42.710;23.378;2022-09-12T13:04:56;7.43;;;3.73;;
20076;SDS011;12348;42.710;23.378;2022-09-12T13:07:29;4.37;;;3.97;;
20076;SDS011;12348;42.710;23.378;2022-09-12T13:10:00;3.60;;;3.30;;
20076;SDS011;12348;42.710;23.378;2022-09-12T13:12:30;4.03;;;3.53;;
20076;SDS011;12348;42.710;23.378;2022-09-12T13:14:59;3.73;;;3.00;;
20076;SDS011;12348;42.710;23.378;2022-09-12T13:17:32;4.77;;;3.67;;
20076;SDS011;12348;42.710;23.378;2022-09-12T13:20:14;7.27;;;4.43;;
20076;SDS011;12348;42.710;23.378;2022-09-12T13:22:45;6.83;;;4.27;;
20076;SDS011;12348;42.710;23.378;2022-09-12T13:25:29;4.00;;;3.70;;
20076;SDS011;12348;42.710;23.378;2022-09-12T13:28:02;4.47;;;3.77;;
20076;SDS011;12348;42.710;23.378;2022-09-12T13:30:32;3.90;;;3.60;;
20076;SDS011;12348;42.710;23.378;2022-09-12T13:33:07;3.60;;;3.30;;
20076;SDS011;12348;42.710;23.378;2022-09-12T13:35:38;5.40;;;3.10;;
20076;SDS011;12348;42.710;23.378;2022-09-12T13:38:18;3.90;;;3.60;;
20076;SDS011;12348;42.710;23.378;2022-09-12T13:41:12;4.50;;;3.97;;
20076;SDS011;12348;42.710;23.378;2022-09-12T13:43:50;3.53;;;3.23;;
20076;SDS011;12348;42.710;23.378;2022-09-12T13:46:17;4.10;;;3.70;;
20076;SDS011;12348;42.710;23.378;2022-09-12T13:48:51;5.73;;;3.87;;
20076;SDS011;12348;42.710;23.378;2022-09-12T13:51:20;3.67;;;3.37;;
20076;SDS011;12348;42.710;23.378;2022-09-12T13:53:49;5.37;;;3.77;;
20076;SDS011;12348;42.710;23.378;2022-09-12T13:56:21;4.37;;;3.97;;
20076;SDS011;12348;42.710;23.378;2022-09-12T13:58:51;3.73;;;3.43;;
20076;SDS011;12348;42.710;23.378;2022-09-12T14:01:21;4.90;;;4.40;;
20076;SDS011;12348;42.710;23.378;2022-09-12T14:03:49;4.67;;;4.27;;
20076;SDS011;12348;42.710;23.378;2022-09-12T14:06:35;5.87;;;4.60;;
20076;SDS011;12348;42.710;23.378;2022-09-12T14:09:13;4.57;;;4.13;;
20076;SDS011;12348;42.710;23.378;2022-09-12T14:11:42;5.37;;;4.57;;
20076;SDS011;12348;42.710;23.378;2022-09-12T14:14:16;4.90;;;4.40;;
20076;SDS011;12348;42.710;23.378;2022-09-12T14:16:46;5.67;;;5.00;;
20076;SDS011;12348;42.710;23.378;2022-09-12T14:19:13;5.40;;;4.90;;
20076;SDS011;12348;42.710;23.378;2022-09-12T14:21:42;4.83;;;4.33;;
20076;SDS011;12348;42.710;23.378;2022-09-12T14:24:09;4.20;;;3.60;;
20076;SDS011;12348;42.710;23.378;2022-09-12T14:26:38;4.23;;;3.83;;
20076;SDS011;12348;42.710;23.378;2022-09-12T14:29:11;5.03;;;4.37;;
20076;SDS011;12348;42.710;23.378;2022-09-12T14:31:40;4.87;;;4.20;;
20076;SDS011;12348;42.710;23.378;2022-09-12T14:34:09;4.80;;;4.30;;
20076;SDS011;12348;42.710;23.378;2022-09-12T14:36:39;7.27;;;4.37;;
20076;SDS011;12348;42.710;23.378;2022-09-12T14:39:17;5.23;;;4.33;;
20076;SDS011;12348;42.710;23.378;2022-09-12T14:41:51;6.27;;;4.30;;
20076;SDS011;12348;42.710;23.378;2022-09-12T14:44:27;7.93;;;6.97;;
20076;SDS011;12348;42.710;23.378;2022-09-12T14:46:56;5.43;;;4.93;;
20076;SDS011;12348;42.710;23.378;2022-09-12T14:49:28;4.77;;;3.60;;
20076;SDS011;12348;42.710;23.378;2022-09-12T14:51:59;5.40;;;4.77;;
20076;SDS011;12348;42.710;23.378;2022-09-12T14:54:37;6.27;;;5.50;;
20076;SDS011;12348;42.710;23.378;2022-09-12T14:57:27;5.20;;;4.80;;
20076;SDS011;12348;42.710;23.378;2022-09-12T15:00:04;6.20;;;5.50;;
20076;SDS011;12348;42.710;23.378;2022-09-12T15:02:40;6.83;;;5.00;;
20076;SDS011;12348;42.710;23.378;2022-09-12T15:05:14;5.87;;;4.73;;
20076;SDS011;12348;42.710;23.378;2022-09-12T15:07:53;4.20;;;3.73;;
20076;SDS011;12348;42.710;23.378;2022-09-12T15:10:23;5.70;;;5.10;;
20076;SDS011;12348;42.710;23.378;2022-09-12T15:13:04;8.33;;;6.30;;
20076;SDS011;12348;42.710;23.378;2022-09-12T15:15:39;5.90;;;5.27;;
20076;SDS011;12348;42.710;23.378;2022-09-12T15:18:08;4.80;;;4.40;;
20076;SDS011;12348;42.710;23.378;2022-09-12T15:20:35;7.03;;;5.07;;
20076;SDS011;12348;42.710;23.378;2022-09-12T15:23:03;5.83;;;4.17;;
20076;SDS011;12348;42.710;23.378;2022-09-12T15:25:30;4.27;;;3.87;;
20076;SDS011;12348;42.710;23.378;2022-09-12T15:27:57;7.13;;;5.17;;
20076;SDS011;12348;42.710;23.378;2022-09-12T15:30:25;8.33;;;4.73;;